createdAt,value
2022-09-13T00:00:35.564Z,21.02
2022-09-13T00:03:02.402Z,21.02
2022-09-13T00:05:29.469Z,21.01
2022-09-13T00:07:56.652Z,21.01
2022-09-13T00:10:24.200Z,20.99
2022-09-13T00:12:51.368Z,20.99
2022-09-13T00:15:18.313Z,20.98
2022-09-13T00:17:45.013Z,20.97
2022-09-13T00:20:11.709Z,20.96
2022-09-13T00:22:38.448Z,20.98
2022-09-13T00:25:06.483Z,20.97
2022-09-13T00:27:34.044Z,20.98
2022-09-13T00:30:00.757Z,20.97
2022-09-13T00:32:28.275Z,20.98
2022-09-13T00:34:54.988Z,20.99
2022-09-13T00:37:21.683Z,20.98
2022-09-13T00:39:49.891Z,20.98
2022-09-13T00:42:16.748Z,20.97
2022-09-13T00:44:59.337Z,20.96
2022-09-13T00:47:39.622Z,20.95
2022-09-13T00:50:19.822Z,20.93
2022-09-13T00:52:53.097Z,20.93
2022-09-13T00:55:24.528Z,20.92
2022-09-13T00:57:52.168Z,20.92
2022-09-13T01:00:20.052Z,20.89
2022-09-13T01:02:51.000Z,20.86
2022-09-13T01:05:21.113Z,20.84
2022-09-13T01:07:48.008Z,20.82
2022-09-13T01:10:14.912Z,20.81
2022-09-13T01:12:48.393Z,20.78
2022-09-13T01:15:15.086Z,20.77
2022-09-13T01:17:43.374Z,20.73
2022-09-13T01:20:11.357Z,20.72
2022-09-13T01:22:50.789Z,20.71
2022-09-13T01:25:42.237Z,20.71
2022-09-13T01:28:18.546Z,20.68
2022-09-13T01:31:02.675Z,20.67
2022-09-13T01:33:59.313Z,20.70
2022-09-13T01:36:42.783Z,20.70
2022-09-13T01:39:15.128Z,20.71
2022-09-13T01:42:03.561Z,20.72
2022-09-13T01:44:52.254Z,20.73
2022-09-13T01:47:31.831Z,20.75
2022-09-13T01:50:36.199Z,20.76
2022-09-13T01:53:15.059Z,20.77
2022-09-13T01:55:47.160Z,20.77
2022-09-13T01:58:24.261Z,20.79
2022-09-13T02:01:09.108Z,20.79
2022-09-13T02:03:48.033Z,20.80
2022-09-13T02:06:18.799Z,20.81
2022-09-13T02:08:48.840Z,20.81
2022-09-13T02:11:17.721Z,20.84
2022-09-13T02:13:51.982Z,20.84
2022-09-13T02:16:24.604Z,20.86
2022-09-13T02:18:54.799Z,20.88
2022-09-13T02:21:28.068Z,20.90
2022-09-13T02:24:05.164Z,20.92
2022-09-13T02:26:34.137Z,20.93
2022-09-13T02:29:07.716Z,20.96
2022-09-13T02:31:37.680Z,20.98
2022-09-13T02:34:10.533Z,20.99
2022-09-13T02:36:40.586Z,21.02
2022-09-13T02:39:12.347Z,21.02
2022-09-13T02:41:52.768Z,21.03
2022-09-13T02:44:31.882Z,21.03
2022-09-13T02:47:12.160Z,21.04
2022-09-13T02:49:45.831Z,21.04
2022-09-13T02:52:21.711Z,21.03
2022-09-13T02:55:01.285Z,20.97
2022-09-13T02:57:57.161Z,20.89
2022-09-13T03:00:23.872Z,20.81
2022-09-13T03:02:51.994Z,20.74
2022-09-13T03:05:18.710Z,20.69
2022-09-13T03:07:45.456Z,20.62
2022-09-13T03:10:13.725Z,20.55
2022-09-13T03:12:52.755Z,20.52
2022-09-13T03:15:38.284Z,20.47
2022-09-13T03:18:29.967Z,20.42
2022-09-13T03:21:15.313Z,20.38
2022-09-13T03:24:15.663Z,20.36
2022-09-13T03:27:03.305Z,20.32
2022-09-13T03:29:38.831Z,20.29
2022-09-13T03:32:23.769Z,20.27
2022-09-13T03:35:15.284Z,20.24
2022-09-13T03:37:55.505Z,20.22
2022-09-13T03:40:43.562Z,20.21
2022-09-13T03:43:14.464Z,20.21
2022-09-13T03:45:45.584Z,20.20
2022-09-13T03:48:12.711Z,20.20
2022-09-13T03:50:39.793Z,20.20
2022-09-13T03:53:11.560Z,20.21
2022-09-13T03:55:42.955Z,20.22
2022-09-13T03:58:15.474Z,20.21
2022-09-13T04:00:42.346Z,20.21
2022-09-13T04:03:09.339Z,20.22
2022-09-13T04:05:36.290Z,20.22
2022-09-13T04:08:05.694Z,20.22
2022-09-13T04:10:33.320Z,20.23
2022-09-13T04:13:02.769Z,20.22
2022-09-13T04:15:31.195Z,20.24
2022-09-13T04:17:57.997Z,20.25
2022-09-13T04:20:25.860Z,20.26
2022-09-13T04:22:53.865Z,20.27
2022-09-13T04:25:21.294Z,20.27
2022-09-13T04:27:49.117Z,20.28
2022-09-13T04:30:15.833Z,20.28
2022-09-13T04:32:43.970Z,20.28
2022-09-13T04:35:11.708Z,20.30
2022-09-13T04:37:38.949Z,20.31
2022-09-13T04:40:07.721Z,20.30
2022-09-13T04:42:34.860Z,20.30
2022-09-13T04:45:02.406Z,20.32
2022-09-13T04:47:29.116Z,20.33
2022-09-13T04:49:55.829Z,20.32
2022-09-13T04:52:22.546Z,20.34
2022-09-13T04:54:49.697Z,20.34
2022-09-13T04:57:16.820Z,20.35
2022-09-13T04:59:43.622Z,20.35
2022-09-13T05:02:10.624Z,20.35
2022-09-13T05:04:37.375Z,20.36
2022-09-13T05:07:04.705Z,20.37
2022-09-13T05:09:31.454Z,20.36
2022-09-13T05:11:58.144Z,20.37
2022-09-13T05:14:24.835Z,20.38
2022-09-13T05:16:51.527Z,20.38
2022-09-13T05:19:18.253Z,20.39
2022-09-13T05:21:45.009Z,20.41
2022-09-13T05:24:11.854Z,20.41
2022-09-13T05:26:38.556Z,20.41
2022-09-13T05:29:05.361Z,20.43
2022-09-13T05:31:35.271Z,20.44
2022-09-13T05:34:05.980Z,20.46
2022-09-13T05:36:33.395Z,20.48
2022-09-13T05:39:29.074Z,20.49
2022-09-13T05:41:47.647Z,20.50
2022-09-13T05:44:14.405Z,20.51
2022-09-13T05:46:42.273Z,20.52
2022-09-13T05:49:08.993Z,20.52
2022-09-13T05:51:36.309Z,20.50
2022-09-13T05:54:03.019Z,20.51
2022-09-13T05:56:30.327Z,20.51
2022-09-13T05:58:57.049Z,20.52
2022-09-13T06:01:26.646Z,20.52
2022-09-13T06:03:55.251Z,20.54
2022-09-13T06:06:23.236Z,20.55
2022-09-13T06:08:54.598Z,20.54
2022-09-13T06:11:21.750Z,20.55
2022-09-13T06:13:48.818Z,20.54
2022-09-13T06:16:16.844Z,20.55
2022-09-13T06:18:43.998Z,20.57
2022-09-13T06:21:18.715Z,20.57
2022-09-13T06:23:49.585Z,20.58
2022-09-13T06:26:17.196Z,20.59
2022-09-13T06:28:48.213Z,20.61
2022-09-13T06:31:16.137Z,20.63
2022-09-13T06:33:43.480Z,20.66
2022-09-13T06:36:18.054Z,20.69
2022-09-13T06:38:51.134Z,20.71
2022-09-13T06:41:20.250Z,20.75
2022-09-13T06:43:50.201Z,20.79
2022-09-13T06:46:23.899Z,20.81
2022-09-13T06:48:52.526Z,20.85
2022-09-13T06:51:21.246Z,20.90
2022-09-13T06:53:49.046Z,20.97
2022-09-13T06:56:20.768Z,21.03
2022-09-13T06:58:49.777Z,21.07
2022-09-13T07:01:18.966Z,21.11
2022-09-13T07:03:49.893Z,21.14
2022-09-13T07:06:22.381Z,21.17
2022-09-13T07:08:51.200Z,21.19
2022-09-13T07:11:19.991Z,21.23
2022-09-13T07:13:55.054Z,21.27
2022-09-13T07:16:24.773Z,21.30
2022-09-13T07:18:54.893Z,21.34
2022-09-13T07:21:22.441Z,21.36
2022-09-13T07:23:49.572Z,21.39
2022-09-13T07:26:16.394Z,21.40
2022-09-13T07:28:48.419Z,21.44
2022-09-13T07:31:17.545Z,21.45
2022-09-13T07:33:45.123Z,21.47
2022-09-13T07:36:12.778Z,21.49
2022-09-13T07:38:41.418Z,21.48
2022-09-13T07:41:12.078Z,21.44
2022-09-13T07:43:39.249Z,21.36
2022-09-13T07:46:08.075Z,21.28
2022-09-13T07:48:36.827Z,21.23
2022-09-13T07:51:05.363Z,21.17
2022-09-13T07:53:33.319Z,21.14
2022-09-13T07:56:05.406Z,21.15
2022-09-13T07:58:36.512Z,21.13
2022-09-13T08:01:24.568Z,21.14
2022-09-13T08:04:05.905Z,21.13
2022-09-13T08:06:33.904Z,21.14
2022-09-13T08:09:01.083Z,21.13
2022-09-13T08:11:30.603Z,21.13
2022-09-13T08:13:57.479Z,21.12
2022-09-13T08:16:25.113Z,21.11
2022-09-13T08:18:57.388Z,21.06
2022-09-13T08:21:24.933Z,21.04
2022-09-13T08:23:56.586Z,21.03
2022-09-13T08:26:23.694Z,21.00
2022-09-13T08:28:55.868Z,20.99
2022-09-13T08:31:23.191Z,20.98
2022-09-13T08:33:50.200Z,20.97
2022-09-13T08:36:18.132Z,20.95
2022-09-13T08:38:46.704Z,20.93
2022-09-13T08:41:23.687Z,20.97
2022-09-13T08:43:57.290Z,20.98
2022-09-13T08:46:29.837Z,20.99
2022-09-13T08:49:07.547Z,21.02
2022-09-13T08:51:49.038Z,21.04
2022-09-13T08:54:16.955Z,21.09
2022-09-13T08:57:08.565Z,21.12
2022-09-13T08:59:38.486Z,21.17
2022-09-13T09:02:14.211Z,21.21
2022-09-13T09:04:48.441Z,21.26
2022-09-13T09:07:17.771Z,21.29
2022-09-13T09:09:48.485Z,21.33
2022-09-13T09:12:16.886Z,21.35
2022-09-13T09:14:46.620Z,21.40
2022-09-13T09:17:25.640Z,21.47
2022-09-13T09:20:22.203Z,21.46
2022-09-13T09:22:49.827Z,21.42
2022-09-13T09:25:16.585Z,21.40
2022-09-13T09:27:43.411Z,21.40
2022-09-13T09:30:14.364Z,21.42
2022-09-13T09:32:51.553Z,21.47
2022-09-13T09:35:36.797Z,21.57
2022-09-13T09:38:28.799Z,21.70
2022-09-13T09:40:55.512Z,21.85
2022-09-13T09:43:29.789Z,21.98
2022-09-13T09:45:57.429Z,22.05
2022-09-13T09:48:29.740Z,22.07
2022-09-13T09:50:58.618Z,22.12
2022-09-13T09:53:37.019Z,22.14
2022-09-13T09:56:24.330Z,22.22
2022-09-13T09:58:53.039Z,22.27
2022-09-13T10:01:32.282Z,22.34
2022-09-13T10:04:16.974Z,22.41
2022-09-13T10:06:43.810Z,22.54
2022-09-13T10:09:13.427Z,22.62
2022-09-13T10:11:54.274Z,22.61
2022-09-13T10:14:30.671Z,22.59
2022-09-13T10:17:18.243Z,22.54
2022-09-13T10:20:02.174Z,22.49
2022-09-13T10:22:31.032Z,22.48
2022-09-13T10:25:14.178Z,22.52
2022-09-13T10:27:50.323Z,22.52
2022-09-13T10:30:32.123Z,22.54
2022-09-13T10:32:59.003Z,22.53
2022-09-13T10:35:25.815Z,22.56
2022-09-13T10:37:52.575Z,22.60
2022-09-13T10:40:38.487Z,22.60
2022-09-13T10:43:07.937Z,22.59
2022-09-13T10:45:34.693Z,22.57
2022-09-13T10:48:16.792Z,22.57
2022-09-13T10:51:04.449Z,22.54
2022-09-13T10:53:42.801Z,22.48
2022-09-13T10:56:27.608Z,22.43
2022-09-13T10:59:24.708Z,22.39
2022-09-13T11:02:09.798Z,22.36
2022-09-13T11:04:51.198Z,22.33
2022-09-13T11:07:31.597Z,22.32
2022-09-13T11:10:26.919Z,22.35
2022-09-13T11:13:06.138Z,22.30
2022-09-13T11:15:51.079Z,22.30
2022-09-13T11:18:30.557Z,22.32
2022-09-13T11:21:18.426Z,22.39
2022-09-13T11:24:00.981Z,22.46
2022-09-13T11:26:42.213Z,22.54
2022-09-13T11:29:31.701Z,22.62
2022-09-13T11:32:07.253Z,22.64
2022-09-13T11:35:00.818Z,22.65
2022-09-13T11:37:51.848Z,22.70
2022-09-13T11:40:18.521Z,22.71
2022-09-13T11:43:08.599Z,22.72
2022-09-13T11:45:47.208Z,22.71
2022-09-13T11:48:26.456Z,22.69
2022-09-13T11:51:12.218Z,22.68
2022-09-13T11:53:50.165Z,22.66
2022-09-13T11:56:26.183Z,22.66
2022-09-13T11:59:01.025Z,22.63
2022-09-13T12:01:32.207Z,22.59
2022-09-13T12:04:02.565Z,22.57
2022-09-13T12:06:36.659Z,22.53
2022-09-13T12:09:12.834Z,22.51
2022-09-13T12:11:44.065Z,22.51
2022-09-13T12:14:17.188Z,22.50
2022-09-13T12:16:48.488Z,22.52
2022-09-13T12:19:32.583Z,22.56
2022-09-13T12:22:00.802Z,22.62
2022-09-13T12:25:07.423Z,22.69
2022-09-13T12:27:40.478Z,22.73
2022-09-13T12:30:19.067Z,22.82
2022-09-13T12:32:47.867Z,22.88
2022-09-13T12:35:39.439Z,22.93
2022-09-13T12:38:16.091Z,23.02
2022-09-13T12:41:11.140Z,23.13
2022-09-13T12:43:56.821Z,23.18
2022-09-13T12:46:45.841Z,23.24
2022-09-13T12:49:12.498Z,23.28
2022-09-13T12:52:01.089Z,23.40
2022-09-13T12:54:43.446Z,23.45
2022-09-13T12:57:34.855Z,23.42
2022-09-13T13:00:11.982Z,23.38
2022-09-13T13:02:54.757Z,23.35
2022-09-13T13:05:42.035Z,23.34
2022-09-13T13:08:25.452Z,23.29
2022-09-13T13:11:07.102Z,23.27
2022-09-13T13:13:37.091Z,23.26
2022-09-13T13:16:20.204Z,23.28
2022-09-13T13:18:48.921Z,23.30
2022-09-13T13:21:39.290Z,23.32
2022-09-13T13:24:15.341Z,23.37
2022-09-13T13:26:48.417Z,23.41
2022-09-13T13:29:16.847Z,23.46
2022-09-13T13:32:04.030Z,23.56
2022-09-13T13:34:40.295Z,23.68
2022-09-13T13:37:10.000Z,23.76
2022-09-13T13:39:39.809Z,23.84
2022-09-13T13:42:26.185Z,23.84
2022-09-13T13:44:52.820Z,23.85
2022-09-13T13:47:19.455Z,23.84
2022-09-13T13:50:00.065Z,23.79
2022-09-13T13:52:26.721Z,23.77
2022-09-13T13:55:25.236Z,23.81
2022-09-13T13:58:04.212Z,23.88
2022-09-13T14:00:31.824Z,23.91
2022-09-13T14:03:01.482Z,23.89
2022-09-13T14:05:46.862Z,23.88
2022-09-13T14:08:33.678Z,23.88
2022-09-13T14:11:15.095Z,23.89
2022-09-13T14:13:58.471Z,23.91
2022-09-13T14:16:49.095Z,23.94
2022-09-13T14:19:25.846Z,23.97
2022-09-13T14:22:14.559Z,24.01
2022-09-13T14:24:49.673Z,24.07
2022-09-13T14:27:43.935Z,24.16
2022-09-13T14:30:28.877Z,24.26
2022-09-13T14:32:57.340Z,24.35
2022-09-13T14:35:39.276Z,24.45
2022-09-13T14:38:23.135Z,24.54
2022-09-13T14:40:53.998Z,24.58
2022-09-13T14:43:22.996Z,24.63
2022-09-13T14:46:04.554Z,24.66
2022-09-13T14:48:41.702Z,24.65
2022-09-13T14:51:27.501Z,24.65
2022-09-13T14:53:58.877Z,24.67
2022-09-13T14:56:40.762Z,24.69
2022-09-13T14:59:18.731Z,24.74
2022-09-13T15:01:45.507Z,24.79
2022-09-13T15:04:12.257Z,24.86
2022-09-13T15:06:42.253Z,24.88
2022-09-13T15:09:12.016Z,24.87
2022-09-13T15:11:53.950Z,24.86
2022-09-13T15:14:25.396Z,24.88
2022-09-13T15:17:12.362Z,24.89
2022-09-13T15:20:03.374Z,24.89
2022-09-13T15:22:33.194Z,24.88
2022-09-13T15:25:01.553Z,24.87
2022-09-13T15:27:30.716Z,24.87
2022-09-13T15:30:00.008Z,24.89
2022-09-13T15:32:41.481Z,24.87
2022-09-13T15:35:23.557Z,24.87
2022-09-13T15:38:15.810Z,24.88
2022-09-13T15:40:48.370Z,24.89
2022-09-13T15:43:15.101Z,24.89
2022-09-13T15:45:41.824Z,24.88
2022-09-13T15:48:17.798Z,24.88
2022-09-13T15:50:50.012Z,24.85
2022-09-13T15:53:16.781Z,24.81
2022-09-13T15:55:43.555Z,24.77
2022-09-13T15:58:10.671Z,24.73
2022-09-13T16:00:40.857Z,24.67
2022-09-13T16:03:08.514Z,24.62
2022-09-13T16:05:36.548Z,24.57
2022-09-13T16:08:03.293Z,24.50
2022-09-13T16:10:30.154Z,24.45
2022-09-13T16:12:56.946Z,24.40
2022-09-13T16:15:23.724Z,24.36
2022-09-13T16:17:50.515Z,24.33
2022-09-13T16:20:17.693Z,24.29
2022-09-13T16:22:44.644Z,24.27
2022-09-13T16:25:13.359Z,24.23
2022-09-13T16:27:41.363Z,24.22
2022-09-13T16:30:09.853Z,24.21
2022-09-13T16:32:36.584Z,24.19
2022-09-13T16:35:03.337Z,24.18
2022-09-13T16:37:30.104Z,24.15
2022-09-13T16:39:58.116Z,24.13
2022-09-13T16:42:25.050Z,24.12
2022-09-13T16:44:52.031Z,24.11
2022-09-13T16:47:18.893Z,24.11
2022-09-13T16:49:46.205Z,24.12
2022-09-13T16:52:13.048Z,24.08
2022-09-13T16:54:39.817Z,24.06
2022-09-13T16:57:07.002Z,24.03
2022-09-13T16:59:33.780Z,23.99
2022-09-13T17:02:01.289Z,23.95
2022-09-13T17:04:28.119Z,23.91
2022-09-13T17:06:54.843Z,23.84
2022-09-13T17:09:23.660Z,23.81
2022-09-13T17:11:50.854Z,23.76
2022-09-13T17:14:17.846Z,23.70
2022-09-13T17:16:48.103Z,23.65
2022-09-13T17:19:17.929Z,23.59
2022-09-13T17:21:45.239Z,23.53
2022-09-13T17:24:13.780Z,23.46
2022-09-13T17:26:41.785Z,23.41
2022-09-13T17:29:08.694Z,23.33
2022-09-13T17:31:35.790Z,23.28
2022-09-13T17:34:02.647Z,23.21
2022-09-13T17:36:29.487Z,23.13
2022-09-13T17:38:57.173Z,23.07
2022-09-13T17:41:25.818Z,23.02
2022-09-13T17:43:53.793Z,22.94
2022-09-13T17:46:22.790Z,22.88
2022-09-13T17:48:51.797Z,22.81
2022-09-13T17:51:21.633Z,22.74
2022-09-13T17:53:56.310Z,22.68
2022-09-13T17:56:30.270Z,22.62
2022-09-13T17:59:00.742Z,22.55
2022-09-13T18:01:27.481Z,22.50
2022-09-13T18:03:55.159Z,22.45
2022-09-13T18:06:21.900Z,22.40
2022-09-13T18:08:48.679Z,22.33
2022-09-13T18:11:22.246Z,22.30
2022-09-13T18:13:49.658Z,22.22
2022-09-13T18:16:21.896Z,22.17
2022-09-13T18:18:50.161Z,22.12
2022-09-13T18:21:19.093Z,22.08
2022-09-13T18:23:50.599Z,22.04
2022-09-13T18:26:22.430Z,21.99
2022-09-13T18:28:57.872Z,21.96
2022-09-13T18:31:25.242Z,21.91
2022-09-13T18:33:57.472Z,21.88
2022-09-13T18:36:24.673Z,21.85
2022-09-13T18:38:52.961Z,21.81
2022-09-13T18:41:22.503Z,21.77
2022-09-13T18:43:55.990Z,21.74
2022-09-13T18:46:25.819Z,21.72
2022-09-13T18:48:54.865Z,21.68
2022-09-13T18:51:24.912Z,21.63
2022-09-13T18:53:51.934Z,21.58
2022-09-13T18:56:20.571Z,21.56
2022-09-13T18:58:47.613Z,21.52
2022-09-13T19:01:17.464Z,21.49
2022-09-13T19:03:49.212Z,21.48
2022-09-13T19:06:21.716Z,21.46
2022-09-13T19:08:49.314Z,21.44
2022-09-13T19:11:42.085Z,21.42
2022-09-13T19:14:04.063Z,21.40
2022-09-13T19:16:30.814Z,21.38
2022-09-13T19:18:57.582Z,21.37
2022-09-13T19:21:29.884Z,21.35
2022-09-13T19:23:59.947Z,21.36
2022-09-13T19:26:29.651Z,21.35
2022-09-13T19:29:04.891Z,21.35
2022-09-13T19:31:36.821Z,21.33
2022-09-13T19:34:06.142Z,21.32
2022-09-13T19:36:34.748Z,21.31
2022-09-13T19:39:02.226Z,21.29
2022-09-13T19:41:29.767Z,21.29
2022-09-13T19:44:00.035Z,21.27
2022-09-13T19:46:31.491Z,21.25
2022-09-13T19:48:59.447Z,21.22
2022-09-13T19:51:36.268Z,21.21
2022-09-13T19:54:03.997Z,21.18
2022-09-13T19:56:32.920Z,21.14
2022-09-13T19:59:00.620Z,21.13
2022-09-13T20:01:29.957Z,21.10
2022-09-13T20:04:01.837Z,21.10
2022-09-13T20:06:33.405Z,21.08
2022-09-13T20:09:00.960Z,21.06
2022-09-13T20:11:28.954Z,21.06
2022-09-13T20:13:59.001Z,21.03
2022-09-13T20:16:28.905Z,21.01
2022-09-13T20:19:00.107Z,20.99
2022-09-13T20:21:28.839Z,20.95
2022-09-13T20:23:58.916Z,20.93
2022-09-13T20:26:26.257Z,20.89
2022-09-13T20:28:58.114Z,20.87
2022-09-13T20:31:24.954Z,20.83
2022-09-13T20:33:56.134Z,20.80
2022-09-13T20:36:23.420Z,20.77
2022-09-13T20:38:53.365Z,20.74
2022-09-13T20:41:20.693Z,20.71
2022-09-13T20:43:50.686Z,20.67
2022-09-13T20:46:18.600Z,20.64
2022-09-13T20:48:45.402Z,20.61
2022-09-13T20:51:14.298Z,20.55
2022-09-13T20:53:41.117Z,20.52
2022-09-13T20:56:10.772Z,20.49
2022-09-13T20:58:37.560Z,20.44
2022-09-13T21:01:07.824Z,20.41
2022-09-13T21:03:38.745Z,20.38
2022-09-13T21:06:06.475Z,20.35
2022-09-13T21:08:42.768Z,20.31
2022-09-13T21:11:18.550Z,20.27
2022-09-13T21:13:51.881Z,20.23
2022-09-13T21:16:21.500Z,20.20
2022-09-13T21:18:48.541Z,20.16
2022-09-13T21:21:17.731Z,20.15
2022-09-13T21:23:44.862Z,20.10
2022-09-13T21:26:14.184Z,20.07
2022-09-13T21:28:43.071Z,20.03
2022-09-13T21:31:22.568Z,20.01
2022-09-13T21:33:54.176Z,19.98
2022-09-13T21:36:20.869Z,19.93
2022-09-13T21:38:47.580Z,19.91
2022-09-13T21:41:16.749Z,19.88
2022-09-13T21:43:44.228Z,19.85
2022-09-13T21:46:16.848Z,19.83
2022-09-13T21:48:48.803Z,19.80
2022-09-13T21:51:22.080Z,19.78
2022-09-13T21:53:52.133Z,19.76
2022-09-13T21:56:23.138Z,19.74
2022-09-13T21:58:52.307Z,19.68
2022-09-13T22:01:22.474Z,19.65
2022-09-13T22:03:51.182Z,19.62
2022-09-13T22:06:19.681Z,19.60
2022-09-13T22:08:54.473Z,19.56
2022-09-13T22:11:27.206Z,19.53
2022-09-13T22:13:54.387Z,19.49
2022-09-13T22:16:23.470Z,19.48
2022-09-13T22:18:52.527Z,19.46
2022-09-13T22:21:21.501Z,19.44
2022-09-13T22:23:48.259Z,19.42
2022-09-13T22:26:17.755Z,19.40
2022-09-13T22:28:44.473Z,19.37
2022-09-13T22:31:13.418Z,19.34
2022-09-13T22:33:40.209Z,19.31
2022-09-13T22:36:09.357Z,19.28
2022-09-13T22:38:37.321Z,19.26
2022-09-13T22:41:12.814Z,19.24
2022-09-13T22:43:39.911Z,19.21
2022-09-13T22:46:09.419Z,19.17
2022-09-13T22:48:36.649Z,19.16
2022-09-13T22:51:04.145Z,19.13
2022-09-13T22:53:32.264Z,19.10
2022-09-13T22:56:07.526Z,19.08
2022-09-13T22:58:34.634Z,19.05
2022-09-13T23:01:05.595Z,19.03
2022-09-13T23:03:33.894Z,19.00
2022-09-13T23:06:00.703Z,18.98
2022-09-13T23:08:27.494Z,18.96
2022-09-13T23:10:54.246Z,18.94
2022-09-13T23:13:21.007Z,18.92
2022-09-13T23:15:47.970Z,18.90
2022-09-13T23:18:14.702Z,18.89
2022-09-13T23:20:42.725Z,18.88
2022-09-13T23:23:10.850Z,18.87
2022-09-13T23:25:37.573Z,18.86
2022-09-13T23:28:04.304Z,18.84
2022-09-13T23:30:31.009Z,18.82
2022-09-13T23:32:57.692Z,18.79
2022-09-13T23:35:24.443Z,18.77
2022-09-13T23:37:51.209Z,18.76
2022-09-13T23:40:17.960Z,18.73
2022-09-13T23:42:44.670Z,18.72
2022-09-13T23:45:12.103Z,18.72
2022-09-13T23:47:38.894Z,18.71
2022-09-13T23:50:06.019Z,18.67
2022-09-13T23:52:32.877Z,18.67
2022-09-13T23:55:00.166Z,18.67
2022-09-13T23:57:26.884Z,18.66
2022-09-13T23:59:53.600Z,18.65
